Bloom, North Dakota
Current Conditions -  °F | °C
As of 3:56 PM on Wednesday 22 Oct 2014 (Local Time) from KJMS Reporting Station
Overcast Overcast  
Wind Chill: 54°   Ceiling: 10000
Heat Index: 54°   Visibility: 10mi
Dew Point: 51°   Wind: 7mph
Humidity: 90%   Direction: 240°WSW
Pressure: 29.84"   Gusts: NA
Location:  46.8494°N, 98.7424°W
Report Text: KJMS 222056Z AUTO 24006KT 10SM FEW050 OVC100 12/11 A2984 RMK AO2 RAE47 SLP106 P0005 60009 T01220106 55003
Loading
Personal Weather Stations






























Interactive Weather Map
Tropical Storm Tracking
New forecast layout! Learn more

10-Day Weather Forecast

Advertisements
Track Severe Weather on mobile